Time;durP1;ratioP1;P1;durP2;ratioP2;P2;SDS_P1;SDS_P2;PMS_P1;PMS_P2;Temp;Humidity;BMP_temperature;BMP_pressure;BME280_temperature;BME280_humidity;BME280_pressure;Samples;Min_cycle;Max_cycle;Signal;HPM_P1;HPM_P2
2024/04/14 00:01:06;;;;;;;2.90;2.20;;;17.20;99.90;;;;;;5393760;26;20464;-71
2024/04/14 00:03:36;;;;;;;3.30;2.97;;;17.10;99.90;;;;;;5395785;26;20259;-70
2024/04/14 00:06:02;;;;;;;5.43;3.40;;;17.10;99.90;;;;;;5392851;26;20468;-74
2024/04/14 00:08:28;;;;;;;3.90;3.40;;;17.10;99.90;;;;;;5389533;26;20708;-71
2024/04/14 00:10:54;;;;;;;5.33;3.43;;;17.10;99.90;;;;;;5421962;26;20223;-72
2024/04/14 00:13:20;;;;;;;4.20;3.70;;;17.00;99.90;;;;;;5421281;26;20258;-72
2024/04/14 00:15:45;;;;;;;4.67;4.17;;;17.00;99.90;;;;;;5424876;26;20461;-73
2024/04/14 00:18:14;;;;;;;5.03;3.93;;;17.10;99.90;;;;;;5424194;26;20557;-73
2024/04/14 00:20:39;;;;;;;4.03;3.43;;;17.10;99.90;;;;;;5426574;26;20476;-74
2024/04/14 00:23:05;;;;;;;6.13;3.70;;;17.20;99.90;;;;;;5428328;26;20241;-72
2024/04/14 00:25:34;;;;;;;5.37;4.53;;;17.20;99.90;;;;;;5422614;26;20238;-73
2024/04/14 00:27:59;;;;;;;6.50;4.00;;;17.30;99.90;;;;;;5420991;26;20465;-71
2024/04/14 00:30:25;;;;;;;5.13;3.50;;;17.30;99.90;;;;;;5398515;26;20456;-72
2024/04/14 00:32:52;;;;;;;6.73;3.87;;;17.30;99.90;;;;;;5423253;26;20486;-71
2024/04/14 00:35:17;;;;;;;4.60;3.37;;;17.30;99.90;;;;;;5405661;26;20456;-71
2024/04/14 00:37:44;;;;;;;6.20;3.57;;;17.40;99.90;;;;;;5424162;26;20525;-73
2024/04/14 00:40:10;;;;;;;9.93;2.97;;;17.40;99.90;;;;;;5425832;26;20257;-70
2024/04/14 00:42:35;;;;;;;3.67;2.87;;;17.40;98.00;;;;;;5423911;26;20460;-72
2024/04/14 00:45:02;;;;;;;3.50;2.33;;;17.40;95.60;;;;;;5422800;26;20302;-75
2024/04/14 00:47:28;;;;;;;3.43;2.40;;;17.40;94.30;;;;;;5394388;26;20239;-72
2024/04/14 00:49:53;;;;;;;3.70;1.90;;;17.40;93.50;;;;;;5386267;26;20782;-71
2024/04/14 00:52:19;;;;;;;3.63;2.07;;;17.30;93.10;;;;;;5408447;26;20336;-72
2024/04/14 00:54:45;;;;;;;3.67;2.80;;;17.20;92.00;;;;;;5403887;26;20249;-71
2024/04/14 00:57:11;;;;;;;5.77;2.27;;;17.10;91.60;;;;;;5409759;26;20229;-71
2024/04/14 00:59:36;;;;;;;3.33;2.10;;;17.00;91.20;;;;;;5414783;26;20268;-72
2024/04/14 01:02:02;;;;;;;2.83;1.97;;;16.90;91.00;;;;;;5423162;26;20520;-72
2024/04/14 01:04:28;;;;;;;2.80;2.17;;;16.80;89.60;;;;;;5421820;26;20817;-74
2024/04/14 01:06:53;;;;;;;3.33;2.37;;;16.80;88.20;;;;;;5424088;26;20284;-70
2024/04/14 01:09:19;;;;;;;5.30;2.00;;;16.70;85.70;;;;;;5421021;26;20592;-73
2024/04/14 01:11:45;;;;;;;2.20;1.50;;;16.70;80.90;;;;;;5419156;26;20222;-70
2024/04/14 01:14:11;;;;;;;3.00;1.63;;;16.60;78.00;;;;;;5421113;26;20441;-71
2024/04/14 01:16:36;;;;;;;2.30;2.03;;;16.60;75.40;;;;;;5376130;26;20357;-71
2024/04/14 01:19:07;;;;;;;4.63;2.20;;;16.50;74.10;;;;;;5413987;26;20216;-70
2024/04/14 01:21:33;;;;;;;6.70;2.50;;;16.40;70.80;;;;;;5424941;26;20262;-71
2024/04/14 01:23:59;;;;;;;2.60;1.70;;;16.30;66.30;;;;;;5384317;26;20467;-72
2024/04/14 01:26:24;;;;;;;3.37;1.90;;;16.30;65.60;;;;;;5420101;26;20236;-69
2024/04/14 01:28:50;;;;;;;4.70;2.00;;;16.30;62.50;;;;;;5427035;26;21065;-70
2024/04/14 01:31:17;;;;;;;4.67;1.80;;;16.20;62.10;;;;;;5428928;26;20245;-70
2024/04/14 01:33:43;;;;;;;3.10;1.73;;;16.20;60.50;;;;;;5423989;26;20297;-70
2024/04/14 01:36:09;;;;;;;4.73;1.80;;;16.10;59.80;;;;;;5398929;26;20882;-70
2024/04/14 01:38:34;;;;;;;2.70;1.60;;;16.00;59.30;;;;;;5423305;26;20461;-70
2024/04/14 01:41:00;;;;;;;3.53;1.50;;;16.00;59.00;;;;;;5424092;26;20522;-72
2024/04/14 01:43:27;;;;;;;2.90;1.93;;;16.00;59.00;;;;;;5426401;26;20224;-70
2024/04/14 01:45:52;;;;;;;4.37;1.53;;;15.90;58.90;;;;;;5427112;26;20530;-71
2024/04/14 01:48:18;;;;;;;3.10;1.53;;;15.90;58.70;;;;;;5428372;26;20457;-74
2024/04/14 01:50:44;;;;;;;2.67;1.67;;;15.80;58.80;;;;;;5421698;26;20225;-72
2024/04/14 01:53:09;;;;;;;1.70;1.10;;;15.80;58.70;;;;;;5421482;26;20449;-72
2024/04/14 01:55:35;;;;;;;2.50;1.40;;;15.70;58.90;;;;;;5421049;26;20220;-71
2024/04/14 01:58:01;;;;;;;4.50;1.23;;;15.60;59.00;;;;;;5420510;26;20723;-72
2024/04/14 02:00:27;;;;;;;2.33;1.33;;;15.50;59.20;;;;;;5421657;26;20461;-71
2024/04/14 02:02:54;;;;;;;3.00;1.47;;;15.50;59.20;;;;;;5410397;26;20259;-70
2024/04/14 02:05:20;;;;;;;5.20;1.70;;;15.40;59.10;;;;;;5406768;26;20268;-71
2024/04/14 02:07:46;;;;;;;2.70;1.40;;;15.40;59.30;;;;;;5421625;26;20477;-70
2024/04/14 02:10:11;;;;;;;2.30;1.10;;;15.30;59.30;;;;;;5390475;26;20227;-71
2024/04/14 02:12:37;;;;;;;2.37;1.50;;;15.30;59.40;;;;;;5423735;26;20273;-70
2024/04/14 02:15:03;;;;;;;3.07;1.60;;;15.20;59.50;;;;;;5379502;26;20247;-73
2024/04/14 02:17:29;;;;;;;2.27;1.13;;;15.20;59.40;;;;;;5421274;26;20228;-71
2024/04/14 02:19:54;;;;;;;3.80;2.10;;;15.10;59.40;;;;;;5393314;26;20231;-72
2024/04/14 02:22:20;;;;;;;3.00;1.60;;;15.10;59.40;;;;;;5425601;26;20220;-72
2024/04/14 02:24:46;;;;;;;5.67;1.67;;;15.10;59.40;;;;;;5429199;26;20581;-70
2024/04/14 02:27:12;;;;;;;2.93;1.40;;;15.00;59.30;;;;;;5406874;26;20295;-70
2024/04/14 02:29:38;;;;;;;6.37;1.37;;;15.00;59.40;;;;;;5421210;26;20462;-69
2024/04/14 02:32:04;;;;;;;1.40;1.20;;;14.90;59.60;;;;;;5423926;26;20743;-71
2024/04/14 02:34:29;;;;;;;1.70;1.10;;;14.80;59.70;;;;;;5416727;26;20316;-70
2024/04/14 02:36:55;;;;;;;1.40;1.10;;;14.70;59.80;;;;;;5409140;26;20461;-70
2024/04/14 02:39:22;;;;;;;2.03;1.40;;;14.70;60.10;;;;;;5422145;26;20271;-69
2024/04/14 02:41:47;;;;;;;3.27;1.33;;;14.70;60.10;;;;;;5390069;26;20541;-73
2024/04/14 02:44:13;;;;;;;2.20;1.50;;;14.70;60.30;;;;;;5420520;26;20585;-70
2024/04/14 02:46:39;;;;;;;2.10;1.53;;;14.70;60.20;;;;;;5418695;26;20236;-69
2024/04/14 02:49:05;;;;;;;3.67;1.40;;;14.60;60.20;;;;;;5420860;26;20548;-69
2024/04/14 02:51:30;;;;;;;5.33;1.70;;;14.60;60.30;;;;;;5414260;26;20305;-70
2024/04/14 02:53:56;;;;;;;1.97;1.00;;;14.50;60.40;;;;;;5420670;26;20484;-70
2024/04/14 02:56:22;;;;;;;3.80;1.30;;;14.50;60.50;;;;;;5420803;26;20227;-71
2024/04/14 02:58:47;;;;;;;3.60;2.03;;;14.40;60.60;;;;;;5423507;26;20228;-70
2024/04/14 03:01:16;;;;;;;3.10;1.60;;;14.40;60.70;;;;;;5420153;26;20231;-70
2024/04/14 03:03:43;;;;;;;3.33;1.50;;;14.40;60.80;;;;;;5420527;26;20235;-70
2024/04/14 03:06:09;;;;;;;4.67;1.37;;;14.40;61.10;;;;;;5412342;26;20462;-71
2024/04/14 03:08:35;;;;;;;3.40;1.60;;;14.40;61.30;;;;;;5420747;26;20465;-70
2024/04/14 03:11:02;;;;;;;2.30;1.60;;;14.30;61.50;;;;;;5420456;26;20469;-71
2024/04/14 03:13:28;;;;;;;2.63;1.50;;;14.20;61.80;;;;;;5422860;26;20220;-70
2024/04/14 03:15:54;;;;;;;2.40;1.43;;;14.20;62.20;;;;;;5420975;26;20584;-70
2024/04/14 03:18:20;;;;;;;3.57;1.77;;;14.20;62.70;;;;;;5421112;26;20911;-69
2024/04/14 03:20:59;;;;;;;1.67;1.20;;;14.10;63.00;;;;;;5383617;26;20646;-72
2024/04/14 03:23:26;;;;;;;2.30;1.43;;;14.10;63.40;;;;;;5387494;26;20455;-71
2024/04/14 03:25:53;;;;;;;3.23;1.87;;;14.00;63.70;;;;;;5419929;26;20453;-73
2024/04/14 03:28:22;;;;;;;2.63;1.57;;;14.00;63.90;;;;;;5418607;26;20469;-69
2024/04/14 03:30:48;;;;;;;3.70;1.57;;;14.00;64.20;;;;;;5385248;26;20755;-69
2024/04/14 03:33:14;;;;;;;4.17;2.20;;;14.00;64.40;;;;;;5413327;26;20509;-70
2024/04/14 03:35:41;;;;;;;4.73;1.57;;;13.90;64.70;;;;;;5372342;26;20216;-69
2024/04/14 03:38:07;;;;;;;5.00;1.83;;;13.90;65.00;;;;;;5412139;26;20516;-69
2024/04/14 03:40:33;;;;;;;5.70;2.10;;;13.90;65.20;;;;;;5418591;26;20219;-71
2024/04/14 03:42:58;;;;;;;8.27;1.27;;;13.80;65.50;;;;;;5418518;26;20330;-70
2024/04/14 03:45:24;;;;;;;3.20;1.67;;;13.80;66.10;;;;;;5418841;26;20220;-70
2024/04/14 03:47:53;;;;;;;5.97;1.93;;;13.80;66.50;;;;;;5416550;26;20277;-69
2024/04/14 03:50:19;;;;;;;2.87;1.47;;;13.80;67.00;;;;;;5404961;26;20477;-69
2024/04/14 03:52:47;;;;;;;3.40;1.80;;;13.80;67.60;;;;;;5389146;26;21014;-69
2024/04/14 03:55:13;;;;;;;2.90;1.77;;;13.70;68.00;;;;;;5383862;26;20463;-68
2024/04/14 03:57:38;;;;;;;3.10;1.20;;;13.70;68.40;;;;;;5415217;26;20281;-69
2024/04/14 04:00:05;;;;;;;3.00;1.50;;;13.70;68.70;;;;;;5414122;26;20374;-69
2024/04/14 04:02:40;;;;;;;6.63;1.80;;;13.80;69.20;;;;;;5418525;26;20317;-70
2024/04/14 04:05:07;;;;;;;3.67;2.30;;;13.80;69.40;;;;;;5387268;26;20529;-70
2024/04/14 04:07:34;;;;;;;2.33;1.37;;;13.80;69.50;;;;;;5418589;26;20555;-69
2024/04/14 04:09:59;;;;;;;7.43;2.20;;;13.80;69.80;;;;;;5420575;26;20467;-69
2024/04/14 04:12:25;;;;;;;4.43;2.20;;;13.90;69.90;;;;;;5424936;26;20466;-71
2024/04/14 04:14:51;;;;;;;3.67;1.60;;;13.90;69.90;;;;;;5425044;26;20220;-71
2024/04/14 04:17:17;;;;;;;4.23;1.90;;;13.80;69.90;;;;;;5420621;26;20717;-68
2024/04/14 04:19:42;;;;;;;5.70;2.10;;;13.80;69.90;;;;;;5413069;26;20453;-68
2024/04/14 04:22:08;;;;;;;4.67;1.87;;;13.80;70.30;;;;;;5411800;26;20231;-71
2024/04/14 04:24:34;;;;;;;5.10;2.10;;;13.70;71.20;;;;;;5387504;26;20220;-69
2024/04/14 04:26:59;;;;;;;6.03;2.07;;;13.70;71.00;;;;;;5419604;26;20533;-71
2024/04/14 04:29:27;;;;;;;3.53;1.87;;;13.60;72.00;;;;;;5418151;26;20224;-70
2024/04/14 04:31:54;;;;;;;7.60;2.17;;;13.50;72.50;;;;;;5419053;26;20645;-70
2024/04/14 04:34:20;;;;;;;2.43;2.00;;;13.50;73.20;;;;;;5417069;26;20464;-70
2024/04/14 04:36:46;;;;;;;3.63;2.13;;;13.40;73.70;;;;;;5391492;26;20477;-72
2024/04/14 04:39:12;;;;;;;5.27;2.13;;;13.30;74.10;;;;;;5419439;26;20543;-71
2024/04/14 04:41:37;;;;;;;2.53;1.50;;;13.30;74.40;;;;;;5382807;26;20599;-72
2024/04/14 04:44:04;;;;;;;5.63;1.87;;;13.30;74.60;;;;;;5383625;26;20255;-69
2024/04/14 04:46:31;;;;;;;3.90;1.90;;;13.20;75.00;;;;;;5409988;26;20271;-69
2024/04/14 04:48:56;;;;;;;6.90;2.00;;;13.20;75.10;;;;;;5385697;26;20463;-71
2024/04/14 04:51:27;;;;;;;4.83;1.93;;;13.30;75.20;;;;;;5419380;26;20457;-70
2024/04/14 04:53:52;;;;;;;3.27;1.77;;;13.30;75.30;;;;;;5422338;26;20511;-71
2024/04/14 04:56:18;;;;;;;5.40;2.30;;;13.40;75.40;;;;;;5423652;26;20465;-71
2024/04/14 04:58:44;;;;;;;11.77;1.80;;;13.40;75.30;;;;;;5423649;26;20261;-69
2024/04/14 05:01:10;;;;;;;3.77;2.17;;;13.50;75.40;;;;;;5422935;26;20627;-70
2024/04/14 05:03:37;;;;;;;4.23;2.03;;;13.50;75.50;;;;;;5377218;26;20257;-70
2024/04/14 05:06:04;;;;;;;6.40;2.10;;;13.50;75.70;;;;;;5407925;26;20834;-71
2024/04/14 05:08:32;;;;;;;4.33;2.00;;;13.50;75.80;;;;;;5422590;26;20733;-70
2024/04/14 05:10:59;;;;;;;2.50;1.73;;;13.50;76.10;;;;;;5421971;26;20450;-70
2024/04/14 05:13:25;;;;;;;3.13;1.80;;;13.40;76.70;;;;;;5422165;26;20517;-72
2024/04/14 05:15:51;;;;;;;8.03;2.23;;;13.40;77.20;;;;;;5421715;26;20786;-70
2024/04/14 05:18:17;;;;;;;4.33;2.10;;;13.40;77.80;;;;;;5421426;26;20472;-71
2024/04/14 05:20:43;;;;;;;4.87;2.20;;;13.40;78.20;;;;;;5406895;26;20473;-70
2024/04/14 05:23:09;;;;;;;4.13;2.17;;;13.40;78.90;;;;;;5422326;26;20540;-72
2024/04/14 05:25:35;;;;;;;5.53;2.00;;;13.40;79.60;;;;;;5385192;26;20514;-70
2024/04/14 05:28:01;;;;;;;6.40;2.40;;;13.40;80.00;;;;;;5412290;26;20465;-70
2024/04/14 05:30:27;;;;;;;4.40;2.60;;;13.40;80.80;;;;;;5421349;26;20488;-70
2024/04/14 05:32:55;;;;;;;4.67;2.43;;;13.50;81.40;;;;;;5393458;26;20221;-70
2024/04/14 05:35:20;;;;;;;7.97;3.23;;;13.50;81.90;;;;;;5414468;26;20514;-69
2024/04/14 05:37:46;;;;;;;4.97;2.60;;;13.50;82.60;;;;;;5417676;26;20474;-69
2024/04/14 05:40:12;;;;;;;5.07;3.03;;;13.50;82.80;;;;;;5422859;26;20220;-70
2024/04/14 05:42:38;;;;;;;4.80;2.60;;;13.60;83.40;;;;;;5422440;26;20563;-69
2024/04/14 05:45:09;;;;;;;5.90;2.30;;;13.60;83.70;;;;;;5424401;26;20452;-70
2024/04/14 05:47:35;;;;;;;5.97;2.70;;;13.60;84.20;;;;;;5422432;26;20538;-70
2024/04/14 05:50:01;;;;;;;6.17;2.90;;;13.70;84.30;;;;;;5382378;26;20462;-71
2024/04/14 05:52:26;;;;;;;6.73;2.50;;;13.70;85.30;;;;;;5421034;26;20773;-70
2024/04/14 05:54:52;;;;;;;3.87;2.10;;;13.80;84.70;;;;;;5421608;26;20215;-70
2024/04/14 05:57:17;;;;;;;6.57;2.90;;;13.80;85.00;;;;;;5421968;26;20224;-70
2024/04/14 05:59:46;;;;;;;6.70;3.03;;;13.90;85.30;;;;;;5425015;26;20228;-71
2024/04/14 06:02:14;;;;;;;7.33;3.23;;;13.90;85.80;;;;;;5422264;26;20262;-70
2024/04/14 06:04:40;;;;;;;8.90;3.87;;;14.00;86.60;;;;;;5420153;26;20849;-69
2024/04/14 06:07:05;;;;;;;9.73;4.47;;;14.00;87.20;;;;;;5415843;26;20469;-71
2024/04/14 06:09:32;;;;;;;12.40;4.60;;;14.00;87.50;;;;;;5421815;26;20235;-71
2024/04/14 06:11:57;;;;;;;9.10;4.13;;;14.00;87.80;;;;;;5422573;26;20313;-71
2024/04/14 06:14:23;;;;;;;10.37;3.77;;;14.00;88.00;;;;;;5428991;26;20911;-73
2024/04/14 06:16:48;;;;;;;10.07;3.73;;;14.10;88.00;;;;;;5426697;26;20274;-69
2024/04/14 06:19:15;;;;;;;8.10;3.60;;;14.10;88.10;;;;;;5425631;26;20219;-69
2024/04/14 06:21:41;;;;;;;8.07;3.23;;;14.10;88.40;;;;;;5413782;26;20216;-70
2024/04/14 06:24:07;;;;;;;11.67;3.77;;;14.10;88.60;;;;;;5423208;26;20506;-72
2024/04/14 06:26:32;;;;;;;19.63;4.00;;;14.20;89.00;;;;;;5390959;26;20518;-75
2024/04/14 06:28:58;;;;;;;9.10;3.87;;;14.20;89.20;;;;;;5421025;26;20724;-69
2024/04/14 06:31:23;;;;;;;7.27;3.93;;;14.20;89.50;;;;;;5420191;26;20251;-70
2024/04/14 06:33:50;;;;;;;6.60;4.03;;;14.30;89.60;;;;;;5418689;26;20220;-73
2024/04/14 06:36:16;;;;;;;12.40;3.90;;;14.30;89.80;;;;;;5406253;26;20287;-71
2024/04/14 06:38:44;;;;;;;9.27;5.43;;;14.30;90.10;;;;;;5420222;26;20959;-70
2024/04/14 06:41:10;;;;;;;13.23;4.60;;;14.30;90.20;;;;;;5420008;26;20227;-71
2024/04/14 06:43:36;;;;;;;10.20;4.10;;;14.30;90.60;;;;;;5418635;26;20765;-70
2024/04/14 06:46:02;;;;;;;10.77;4.67;;;14.30;90.60;;;;;;5420252;26;20457;-70
2024/04/14 06:48:27;;;;;;;8.57;4.27;;;14.40;90.60;;;;;;5421051;26;20219;-70
2024/04/14 06:50:53;;;;;;;8.60;4.90;;;14.50;90.80;;;;;;5421927;26;20219;-71
2024/04/14 06:53:22;;;;;;;6.87;4.50;;;14.60;90.80;;;;;;5421548;26;20510;-70
2024/04/14 06:55:50;;;;;;;6.90;3.73;;;14.60;91.00;;;;;;5384058;26;20243;-71
2024/04/14 06:58:16;;;;;;;13.83;5.33;;;14.70;91.10;;;;;;5426379;26;20461;-70
2024/04/14 07:00:41;;;;;;;10.20;4.63;;;14.70;91.20;;;;;;5392829;26;20488;-70
2024/04/14 07:03:08;;;;;;;17.77;5.70;;;14.80;91.40;;;;;;5421365;26;20278;-71
2024/04/14 07:05:34;;;;;;;10.83;5.40;;;14.90;91.40;;;;;;5387244;26;20225;-70
2024/04/14 07:07:59;;;;;;;10.83;5.80;;;15.00;91.20;;;;;;5394097;26;20536;-71
2024/04/14 07:10:25;;;;;;;9.03;4.93;;;14.90;91.30;;;;;;5422449;26;20261;-75
2024/04/14 07:12:51;;;;;;;12.50;5.90;;;14.90;91.60;;;;;;5423624;26;20321;-71
2024/04/14 07:15:16;;;;;;;16.70;6.13;;;14.90;91.50;;;;;;5420567;26;20215;-70
2024/04/14 07:17:42;;;;;;;14.90;6.10;;;15.00;91.40;;;;;;5394523;26;20224;-71
2024/04/14 07:20:07;;;;;;;13.17;5.67;;;15.00;91.10;;;;;;5423916;26;20220;-72
2024/04/14 07:22:33;;;;;;;9.90;4.97;;;14.90;91.60;;;;;;5421235;26;20268;-72
2024/04/14 07:24:59;;;;;;;7.40;4.50;;;15.00;91.10;;;;;;5420011;26;20261;-69
2024/04/14 07:27:26;;;;;;;11.37;4.47;;;15.00;90.80;;;;;;5423499;26;20277;-71
2024/04/14 07:29:51;;;;;;;9.23;4.97;;;15.20;90.60;;;;;;5426523;26;20461;-72
2024/04/14 07:32:17;;;;;;;10.30;4.60;;;15.40;89.90;;;;;;5423328;26;20513;-70
2024/04/14 07:34:42;;;;;;;9.13;4.67;;;15.50;89.00;;;;;;5420505;26;20231;-71
2024/04/14 07:37:08;;;;;;;10.40;4.90;;;15.60;88.70;;;;;;5420611;26;20312;-72
2024/04/14 07:39:34;;;;;;;10.00;4.33;;;15.80;86.70;;;;;;5420395;26;20224;-70
2024/04/14 07:42:04;;;;;;;8.40;4.90;;;15.90;85.10;;;;;;5421311;26;20258;-71
2024/04/14 07:44:30;;;;;;;6.20;3.83;;;15.80;83.80;;;;;;5405707;26;20586;-70
2024/04/14 07:46:55;;;;;;;9.30;4.70;;;15.70;84.70;;;;;;5421946;26;20512;-72
2024/04/14 07:49:22;;;;;;;10.60;5.47;;;15.60;84.90;;;;;;5422840;26;20545;-73
2024/04/14 07:51:48;;;;;;;8.70;5.30;;;15.50;86.00;;;;;;5403424;26;20295;-70
2024/04/14 07:54:14;;;;;;;7.33;4.43;;;15.60;85.90;;;;;;5421130;26;20469;-70
2024/04/14 07:56:40;;;;;;;11.70;5.30;;;15.70;85.30;;;;;;5421079;26;20537;-71
2024/04/14 07:59:06;;;;;;;12.37;5.37;;;15.80;84.20;;;;;;5422203;26;20458;-70
2024/04/14 08:01:31;;;;;;;8.90;5.17;;;15.90;84.00;;;;;;5419635;26;20219;-70
2024/04/14 08:03:57;;;;;;;18.00;5.67;;;15.90;83.40;;;;;;5360926;26;20224;-69
2024/04/14 08:06:23;;;;;;;12.33;4.20;;;16.00;82.60;;;;;;5419665;26;20227;-70
2024/04/14 08:08:49;;;;;;;6.73;3.57;;;15.90;83.40;;;;;;5420631;26;20525;-70
2024/04/14 08:11:15;;;;;;;9.87;4.17;;;16.00;83.40;;;;;;5419523;26;20221;-70
2024/04/14 08:13:40;;;;;;;7.50;4.23;;;16.20;83.20;;;;;;5424399;26;20567;-71
2024/04/14 08:16:06;;;;;;;9.40;3.47;;;16.50;81.90;;;;;;5419625;26;20462;-70
2024/04/14 08:18:32;;;;;;;10.63;3.83;;;16.60;78.90;;;;;;5418555;26;20220;-72
2024/04/14 08:21:02;;;;;;;6.23;4.03;;;16.70;78.40;;;;;;5428020;26;20520;-71
2024/04/14 08:23:28;;;;;;;8.30;3.67;;;16.70;77.20;;;;;;5422495;26;20618;-69
2024/04/14 08:25:54;;;;;;;7.30;2.97;;;16.80;76.50;;;;;;5425342;26;20450;-71
2024/04/14 08:28:19;;;;;;;4.10;2.60;;;16.90;76.00;;;;;;5390261;26;20273;-72
2024/04/14 08:30:45;;;;;;;7.73;3.37;;;17.10;76.40;;;;;;5420492;26;20459;-71
2024/04/14 08:33:10;;;;;;;6.80;4.30;;;17.20;74.10;;;;;;5382357;26;20354;-72
2024/04/14 08:35:36;;;;;;;6.23;3.17;;;17.20;73.40;;;;;;5388277;26;20632;-72
2024/04/14 08:38:02;;;;;;;6.03;3.03;;;17.20;73.20;;;;;;5420835;26;20692;-72
2024/04/14 08:40:27;;;;;;;9.07;3.57;;;17.30;73.60;;;;;;5420809;26;20228;-72
2024/04/14 08:42:53;;;;;;;6.57;4.40;;;17.40;73.70;;;;;;5391265;26;20223;-71
2024/04/14 08:45:24;;;;;;;12.80;6.53;;;17.40;73.10;;;;;;5420209;26;20577;-71
2024/04/14 08:47:53;;;;;;;8.00;4.47;;;17.40;73.70;;;;;;5420459;26;20472;-71
2024/04/14 08:50:22;;;;;;;9.07;4.37;;;17.50;73.10;;;;;;5424663;26;20472;-75
2024/04/14 08:52:48;;;;;;;6.07;4.10;;;17.50;72.80;;;;;;5421866;26;20728;-69
2024/04/14 08:55:14;;;;;;;7.83;3.90;;;17.50;72.90;;;;;;5419180;26;20453;-71
2024/04/14 08:57:40;;;;;;;11.83;4.10;;;17.70;72.80;;;;;;5419081;26;20280;-70
2024/04/14 09:00:12;;;;;;;11.10;4.93;;;17.70;71.30;;;;;;5418814;26;20257;-72
2024/04/14 09:02:42;;;;;;;10.33;4.30;;;17.60;71.40;;;;;;5419658;26;20519;-72
2024/04/14 09:05:12;;;;;;;10.03;5.00;;;17.50;73.00;;;;;;5418929;26;20787;-72
2024/04/14 09:07:38;;;;;;;12.90;4.10;;;17.40;70.90;;;;;;5419199;26;20524;-71
2024/04/14 09:10:04;;;;;;;10.20;4.40;;;17.30;70.60;;;;;;5410245;26;20467;-72
2024/04/14 09:12:31;;;;;;;8.50;5.00;;;17.30;71.00;;;;;;5394682;26;20510;-70
2024/04/14 09:14:56;;;;;;;7.77;4.73;;;17.50;70.90;;;;;;5396362;26;20463;-74
2024/04/14 09:17:22;;;;;;;9.00;3.77;;;17.40;71.00;;;;;;5417204;26;20840;-71
2024/04/14 09:19:48;;;;;;;10.50;4.27;;;17.30;71.20;;;;;;5405892;26;20217;-72
2024/04/14 09:22:16;;;;;;;10.70;4.87;;;17.10;71.10;;;;;;5405730;26;20223;-71
2024/04/14 09:24:41;;;;;;;11.50;3.83;;;17.00;70.00;;;;;;5407402;26;20261;-72
2024/04/14 09:27:07;;;;;;;9.93;4.50;;;16.90;70.30;;;;;;5416960;26;20685;-72
2024/04/14 09:29:36;;;;;;;11.40;4.00;;;17.00;69.60;;;;;;5395990;26;20230;-71
2024/04/14 09:32:03;;;;;;;8.30;3.67;;;16.90;69.20;;;;;;5396639;26;20267;-71
2024/04/14 09:34:28;;;;;;;7.30;3.87;;;17.00;68.30;;;;;;5394397;26;20738;-69
2024/04/14 09:36:54;;;;;;;6.63;3.43;;;17.00;68.40;;;;;;5393297;26;20565;-70
2024/04/14 09:39:20;;;;;;;7.23;3.20;;;17.00;67.70;;;;;;5403025;26;20761;-70
2024/04/14 09:41:46;;;;;;;4.93;3.00;;;16.90;66.80;;;;;;5412254;26;20466;-71
2024/04/14 09:44:13;;;;;;;4.80;2.60;;;16.90;66.50;;;;;;5399989;26;20487;-72
2024/04/14 09:46:41;;;;;;;6.20;3.43;;;17.00;65.00;;;;;;5387325;26;20825;-72
2024/04/14 09:49:08;;;;;;;5.87;3.33;;;17.10;65.30;;;;;;5395833;26;20517;-72
2024/04/14 09:51:40;;;;;;;5.73;2.70;;;17.30;65.60;;;;;;5404615;26;20462;-70
2024/04/14 09:54:10;;;;;;;7.60;3.07;;;17.40;64.50;;;;;;5408034;26;20460;-72
2024/04/14 09:56:36;;;;;;;5.50;2.10;;;17.60;63.00;;;;;;5396476;26;20545;-72
2024/04/14 09:59:02;;;;;;;5.50;2.63;;;17.70;62.60;;;;;;5391880;26;20923;-72
2024/04/14 10:01:34;;;;;;;9.33;2.83;;;18.00;61.30;;;;;;5394369;26;20221;-72
2024/04/14 10:04:02;;;;;;;14.90;3.10;;;18.10;59.80;;;;;;5399915;26;20279;-72
2024/04/14 10:06:29;;;;;;;9.57;2.70;;;18.00;58.90;;;;;;5408819;26;20545;-70
2024/04/14 10:08:55;;;;;;;8.00;3.47;;;18.00;59.40;;;;;;5404201;26;20901;-72
2024/04/14 10:11:23;;;;;;;6.90;3.00;;;18.10;58.70;;;;;;5399167;26;20530;-72
2024/04/14 10:13:53;;;;;;;7.63;2.83;;;17.90;59.20;;;;;;5396917;26;20463;-72
2024/04/14 10:16:21;;;;;;;6.10;2.60;;;17.80;59.30;;;;;;5396501;26;20743;-71
2024/04/14 10:18:47;;;;;;;6.10;3.90;;;17.70;59.90;;;;;;5391275;26;20518;-74
2024/04/14 10:21:17;;;;;;;8.27;3.13;;;17.70;60.70;;;;;;5402037;26;20506;-71
2024/04/14 10:23:47;;;;;;;6.40;3.40;;;17.80;60.20;;;;;;5389348;26;20466;-72
2024/04/14 10:26:17;;;;;;;4.90;2.93;;;17.90;59.30;;;;;;5403987;26;20478;-76
2024/04/14 10:28:52;;;;;;;5.00;2.43;;;18.20;59.00;;;;;;5396481;26;20787;-73
2024/04/14 10:31:51;;;;;;;8.30;2.50;;;18.40;57.60;;;;;;5394611;26;20439;-74
2024/04/14 10:34:23;;;;;;;7.03;3.57;;;18.40;58.00;;;;;;5390384;26;20570;-71
2024/04/14 10:36:58;;;;;;;5.27;2.70;;;18.50;57.40;;;;;;5395944;26;20503;-71
2024/04/14 10:39:24;;;;;;;4.53;2.37;;;18.50;56.90;;;;;;5409734;26;20529;-74
2024/04/14 10:41:50;;;;;;;5.60;2.10;;;18.70;56.10;;;;;;5389040;26;20518;-73
2024/04/14 10:44:16;;;;;;;6.13;2.77;;;18.70;55.80;;;;;;5403062;26;20471;-75
2024/04/14 10:46:42;;;;;;;4.80;2.63;;;18.80;55.40;;;;;;5426522;26;20224;-72
2024/04/14 10:49:09;;;;;;;7.37;2.43;;;18.80;55.00;;;;;;5398044;26;20557;-74
2024/04/14 10:51:36;;;;;;;4.43;2.10;;;18.80;55.30;;;;;;5407704;26;20467;-71
2024/04/14 10:54:02;;;;;;;5.70;2.20;;;18.70;54.50;;;;;;5406514;26;20526;-73
2024/04/14 10:56:28;;;;;;;5.87;1.90;;;18.60;54.20;;;;;;5368055;26;20529;-73
2024/04/14 10:58:54;;;;;;;5.93;1.80;;;18.60;54.10;;;;;;5405490;26;20557;-73
2024/04/14 11:01:21;;;;;;;5.83;2.43;;;18.60;53.50;;;;;;5399374;26;20455;-73
2024/04/14 11:03:47;;;;;;;4.80;2.10;;;18.30;53.70;;;;;;5405363;26;20531;-73
2024/04/14 11:06:14;;;;;;;6.40;2.40;;;18.10;54.60;;;;;;5401542;26;20228;-72
2024/04/14 11:08:41;;;;;;;5.43;2.33;;;18.10;54.60;;;;;;5408874;26;20479;-72
2024/04/14 11:11:07;;;;;;;10.10;2.10;;;18.20;54.80;;;;;;5410741;26;20460;-74
2024/04/14 11:13:34;;;;;;;5.10;1.73;;;18.30;54.10;;;;;;5403227;26;20455;-74
2024/04/14 11:16:00;;;;;;;5.23;2.50;;;18.40;54.30;;;;;;5423862;26;20582;-73
2024/04/14 11:18:29;;;;;;;4.63;2.07;;;18.50;54.00;;;;;;5403381;26;20521;-73
2024/04/14 11:20:55;;;;;;;4.73;2.30;;;18.50;54.50;;;;;;5399866;26;20264;-73
2024/04/14 11:23:21;;;;;;;3.40;2.23;;;18.50;54.10;;;;;;5387920;26;20447;-72
2024/04/14 11:25:48;;;;;;;4.47;2.17;;;18.60;54.00;;;;;;5417027;26;20461;-74
2024/04/14 11:28:14;;;;;;;5.17;2.17;;;18.60;53.80;;;;;;5413684;26;20461;-72
2024/04/14 11:30:41;;;;;;;4.30;2.20;;;18.70;53.70;;;;;;5401470;26;20807;-73
2024/04/14 11:33:07;;;;;;;7.17;3.20;;;18.70;53.60;;;;;;5396965;26;20502;-73
2024/04/14 11:35:33;;;;;;;4.53;2.70;;;18.70;53.60;;;;;;5398085;26;20467;-73
2024/04/14 11:37:59;;;;;;;7.60;2.60;;;18.50;54.20;;;;;;5414379;26;20231;-70
2024/04/14 11:40:25;;;;;;;7.73;2.10;;;18.40;54.10;;;;;;5372585;26;20239;-72
2024/04/14 11:42:51;;;;;;;8.43;3.00;;;18.50;54.10;;;;;;5407156;26;20266;-72
2024/04/14 11:45:18;;;;;;;6.40;2.33;;;18.70;53.70;;;;;;5403355;26;20459;-76
2024/04/14 11:47:45;;;;;;;7.03;3.03;;;18.90;53.40;;;;;;5393897;26;20488;-73
2024/04/14 11:50:12;;;;;;;4.07;2.70;;;19.00;53.10;;;;;;5399642;26;20466;-71
2024/04/14 11:52:38;;;;;;;6.70;3.10;;;19.00;53.00;;;;;;5418134;26;20466;-72
2024/04/14 11:55:06;;;;;;;8.27;2.67;;;19.00;53.00;;;;;;5406450;26;20504;-70
2024/04/14 11:57:32;;;;;;;7.90;3.40;;;19.20;53.50;;;;;;5410944;26;20475;-72
2024/04/14 11:59:58;;;;;;;7.83;3.60;;;19.40;53.30;;;;;;5397110;26;20451;-74
2024/04/14 12:02:26;;;;;;;11.00;3.77;;;19.40;53.00;;;;;;5404258;26;20529;-73
2024/04/14 12:04:52;;;;;;;9.20;3.60;;;19.50;52.90;;;;;;5402497;26;20252;-71
2024/04/14 12:07:19;;;;;;;4.07;2.93;;;19.40;52.30;;;;;;5376267;26;20473;-73
2024/04/14 12:09:45;;;;;;;6.10;4.50;;;19.30;51.60;;;;;;5365143;26;20520;-73
2024/04/14 12:12:13;;;;;;;7.73;3.60;;;19.20;52.30;;;;;;5425158;26;20461;-72
2024/04/14 12:14:39;;;;;;;5.80;3.17;;;19.00;52.60;;;;;;5432369;26;20960;-72
2024/04/14 12:17:04;;;;;;;4.43;2.90;;;19.00;53.30;;;;;;5425783;26;20469;-75
2024/04/14 12:19:30;;;;;;;6.27;3.20;;;19.30;53.30;;;;;;5429337;26;20587;-72
2024/04/14 12:21:55;;;;;;;6.43;3.30;;;19.50;52.40;;;;;;5380122;26;20661;-74
2024/04/14 12:24:21;;;;;;;5.30;2.97;;;19.80;52.50;;;;;;5429398;26;20265;-74
2024/04/14 12:26:47;;;;;;;7.60;2.80;;;19.80;52.50;;;;;;5429279;26;20278;-74
2024/04/14 12:29:12;;;;;;;7.77;4.03;;;19.70;53.10;;;;;;5427368;26;20591;-74
2024/04/14 12:31:38;;;;;;;8.07;3.20;;;19.70;53.00;;;;;;5427239;26;20305;-74
2024/04/14 12:34:04;;;;;;;5.53;2.93;;;19.70;53.20;;;;;;5423702;26;20283;-74
2024/04/14 12:36:29;;;;;;;6.20;3.63;;;19.80;53.40;;;;;;5423263;26;20224;-74
2024/04/14 12:38:55;;;;;;;10.40;4.03;;;19.90;53.00;;;;;;5423050;26;20631;-70
2024/04/14 12:41:21;;;;;;;6.23;3.03;;;20.00;52.90;;;;;;5421810;26;20257;-73